sensor_id;sensor_type;location;lat;lon;timestamp;P1;durP1;ratioP1;P2;durP2;ratioP2
59970;SDS011;45825;45.434;9.116;2023-03-01T00:00:11;33.45;;;25.00;;
59970;SDS011;45825;45.434;9.116;2023-03-01T00:02:36;36.55;;;25.50;;
59970;SDS011;45825;45.434;9.116;2023-03-01T00:05:02;37.50;;;24.13;;
59970;SDS011;45825;45.434;9.116;2023-03-01T00:07:28;33.67;;;24.38;;
59970;SDS011;45825;45.434;9.116;2023-03-01T00:09:53;33.65;;;25.67;;
59970;SDS011;45825;45.434;9.116;2023-03-01T00:12:19;37.50;;;26.35;;
59970;SDS011;45825;45.434;9.116;2023-03-01T00:14:44;39.47;;;26.85;;
59970;SDS011;45825;45.434;9.116;2023-03-01T00:17:09;36.97;;;26.73;;
59970;SDS011;45825;45.434;9.116;2023-03-01T00:19:35;36.33;;;27.60;;
59970;SDS011;45825;45.434;9.116;2023-03-01T00:22:00;37.83;;;27.17;;
59970;SDS011;45825;45.434;9.116;2023-03-01T00:24:26;36.38;;;27.40;;
59970;SDS011;45825;45.434;9.116;2023-03-01T00:26:54;45.30;;;29.80;;
59970;SDS011;45825;45.434;9.116;2023-03-01T00:29:21;36.88;;;27.83;;
59970;SDS011;45825;45.434;9.116;2023-03-01T00:31:47;39.20;;;28.27;;
59970;SDS011;45825;45.434;9.116;2023-03-01T00:34:13;39.97;;;29.58;;
59970;SDS011;45825;45.434;9.116;2023-03-01T00:36:38;39.67;;;29.33;;
59970;SDS011;45825;45.434;9.116;2023-03-01T00:39:04;39.83;;;29.13;;
59970;SDS011;45825;45.434;9.116;2023-03-01T00:41:32;40.00;;;29.55;;
59970;SDS011;45825;45.434;9.116;2023-03-01T00:43:59;43.28;;;31.00;;
59970;SDS011;45825;45.434;9.116;2023-03-01T00:46:25;39.30;;;29.67;;
59970;SDS011;45825;45.434;9.116;2023-03-01T00:48:52;39.67;;;29.63;;
59970;SDS011;45825;45.434;9.116;2023-03-01T00:51:26;41.17;;;30.83;;
59970;SDS011;45825;45.434;9.116;2023-03-01T00:53:53;42.60;;;30.30;;
59970;SDS011;45825;45.434;9.116;2023-03-01T00:56:20;45.53;;;30.90;;
59970;SDS011;45825;45.434;9.116;2023-03-01T00:58:46;42.90;;;31.17;;
59970;SDS011;45825;45.434;9.116;2023-03-01T01:01:19;42.58;;;31.42;;
59970;SDS011;45825;45.434;9.116;2023-03-01T01:03:50;42.00;;;30.05;;
59970;SDS011;45825;45.434;9.116;2023-03-01T01:06:18;43.83;;;31.17;;
59970;SDS011;45825;45.434;9.116;2023-03-01T01:08:45;44.92;;;30.73;;
59970;SDS011;45825;45.434;9.116;2023-03-01T01:11:11;38.17;;;29.85;;
59970;SDS011;45825;45.434;9.116;2023-03-01T01:13:38;43.33;;;30.77;;
59970;SDS011;45825;45.434;9.116;2023-03-01T01:16:04;42.47;;;30.83;;
59970;SDS011;45825;45.434;9.116;2023-03-01T01:18:29;41.33;;;30.92;;
59970;SDS011;45825;45.434;9.116;2023-03-01T01:20:55;40.03;;;30.83;;
59970;SDS011;45825;45.434;9.116;2023-03-01T01:23:20;39.35;;;29.85;;
59970;SDS011;45825;45.434;9.116;2023-03-01T01:25:45;46.22;;;29.52;;
59970;SDS011;45825;45.434;9.116;2023-03-01T01:28:11;41.75;;;31.40;;
59970;SDS011;45825;45.434;9.116;2023-03-01T01:30:36;42.28;;;30.73;;
59970;SDS011;45825;45.434;9.116;2023-03-01T01:33:02;41.83;;;30.42;;
59970;SDS011;45825;45.434;9.116;2023-03-01T01:35:27;40.33;;;30.38;;
59970;SDS011;45825;45.434;9.116;2023-03-01T01:37:53;43.63;;;31.48;;
59970;SDS011;45825;45.434;9.116;2023-03-01T01:40:18;42.33;;;31.25;;
59970;SDS011;45825;45.434;9.116;2023-03-01T01:42:43;39.60;;;30.23;;
59970;SDS011;45825;45.434;9.116;2023-03-01T01:45:24;44.60;;;30.80;;
59970;SDS011;45825;45.434;9.116;2023-03-01T01:47:54;40.72;;;29.45;;
59970;SDS011;45825;45.434;9.116;2023-03-01T01:50:23;42.95;;;30.33;;
59970;SDS011;45825;45.434;9.116;2023-03-01T01:52:49;43.80;;;30.08;;
59970;SDS011;45825;45.434;9.116;2023-03-01T01:55:18;42.50;;;30.40;;
59970;SDS011;45825;45.434;9.116;2023-03-01T01:57:51;42.78;;;31.17;;
59970;SDS011;45825;45.434;9.116;2023-03-01T02:00:20;43.50;;;31.02;;
59970;SDS011;45825;45.434;9.116;2023-03-01T02:02:48;42.20;;;30.83;;
59970;SDS011;45825;45.434;9.116;2023-03-01T02:05:40;40.88;;;31.08;;
59970;SDS011;45825;45.434;9.116;2023-03-01T02:08:12;42.63;;;29.83;;
59970;SDS011;45825;45.434;9.116;2023-03-01T02:10:39;42.35;;;30.92;;
59970;SDS011;45825;45.434;9.116;2023-03-01T02:13:06;43.83;;;31.05;;
59970;SDS011;45825;45.434;9.116;2023-03-01T02:15:33;45.53;;;30.27;;
59970;SDS011;45825;45.434;9.116;2023-03-01T02:17:59;41.63;;;30.10;;
59970;SDS011;45825;45.434;9.116;2023-03-01T02:20:29;43.22;;;30.35;;
59970;SDS011;45825;45.434;9.116;2023-03-01T02:23:03;42.00;;;29.77;;
59970;SDS011;45825;45.434;9.116;2023-03-01T02:28:07;42.40;;;30.85;;
59970;SDS011;45825;45.434;9.116;2023-03-01T02:30:41;43.35;;;31.05;;
59970;SDS011;45825;45.434;9.116;2023-03-01T02:33:28;42.63;;;30.25;;
59970;SDS011;45825;45.434;9.116;2023-03-01T02:35:57;44.40;;;30.90;;
59970;SDS011;45825;45.434;9.116;2023-03-01T02:38:25;42.00;;;31.23;;
59970;SDS011;45825;45.434;9.116;2023-03-01T02:40:51;41.45;;;31.05;;
59970;SDS011;45825;45.434;9.116;2023-03-01T02:43:19;43.75;;;30.83;;
59970;SDS011;45825;45.434;9.116;2023-03-01T02:45:49;49.50;;;30.70;;
59970;SDS011;45825;45.434;9.116;2023-03-01T02:48:16;41.75;;;31.35;;
59970;SDS011;45825;45.434;9.116;2023-03-01T02:56:18;40.50;;;30.10;;
59970;SDS011;45825;45.434;9.116;2023-03-01T02:58:43;41.00;;;30.90;;
59970;SDS011;45825;45.434;9.116;2023-03-01T03:01:16;49.13;;;32.25;;
59970;SDS011;45825;45.434;9.116;2023-03-01T03:03:46;41.03;;;30.02;;
59970;SDS011;45825;45.434;9.116;2023-03-01T03:06:11;43.17;;;30.65;;
59970;SDS011;45825;45.434;9.116;2023-03-01T03:08:37;45.85;;;31.25;;
59970;SDS011;45825;45.434;9.116;2023-03-01T03:11:03;47.70;;;31.48;;
59970;SDS011;45825;45.434;9.116;2023-03-01T03:13:28;48.35;;;31.15;;
59970;SDS011;45825;45.434;9.116;2023-03-01T03:15:54;40.90;;;30.05;;
59970;SDS011;45825;45.434;9.116;2023-03-01T03:18:21;41.50;;;30.73;;
59970;SDS011;45825;45.434;9.116;2023-03-01T03:20:47;40.05;;;29.85;;
59970;SDS011;45825;45.434;9.116;2023-03-01T03:23:17;42.97;;;29.95;;
59970;SDS011;45825;45.434;9.116;2023-03-01T03:25:43;46.22;;;31.05;;
59970;SDS011;45825;45.434;9.116;2023-03-01T03:28:08;44.00;;;31.13;;
59970;SDS011;45825;45.434;9.116;2023-03-01T03:30:38;43.17;;;30.10;;
59970;SDS011;45825;45.434;9.116;2023-03-01T03:33:05;41.25;;;29.75;;
59970;SDS011;45825;45.434;9.116;2023-03-01T03:35:33;40.53;;;30.20;;
59970;SDS011;45825;45.434;9.116;2023-03-01T03:38:04;41.83;;;31.67;;
59970;SDS011;45825;45.434;9.116;2023-03-01T03:40:35;43.15;;;30.33;;
59970;SDS011;45825;45.434;9.116;2023-03-01T03:45:29;41.88;;;29.17;;
59970;SDS011;45825;45.434;9.116;2023-03-01T03:47:54;40.22;;;28.77;;
59970;SDS011;45825;45.434;9.116;2023-03-01T03:50:20;42.53;;;30.88;;
59970;SDS011;45825;45.434;9.116;2023-03-01T03:52:45;42.03;;;30.50;;
59970;SDS011;45825;45.434;9.116;2023-03-01T03:55:11;42.63;;;30.05;;
59970;SDS011;45825;45.434;9.116;2023-03-01T03:57:37;42.85;;;30.15;;
59970;SDS011;45825;45.434;9.116;2023-03-01T04:00:04;43.10;;;29.95;;
59970;SDS011;45825;45.434;9.116;2023-03-01T04:02:31;43.17;;;30.60;;
59970;SDS011;45825;45.434;9.116;2023-03-01T04:04:56;40.90;;;30.13;;
59970;SDS011;45825;45.434;9.116;2023-03-01T04:07:21;44.00;;;31.63;;
59970;SDS011;45825;45.434;9.116;2023-03-01T04:09:47;44.63;;;31.92;;
59970;SDS011;45825;45.434;9.116;2023-03-01T04:12:12;40.10;;;30.42;;
59970;SDS011;45825;45.434;9.116;2023-03-01T04:14:38;42.42;;;31.15;;
59970;SDS011;45825;45.434;9.116;2023-03-01T04:17:03;41.80;;;30.23;;
59970;SDS011;45825;45.434;9.116;2023-03-01T04:19:30;42.35;;;30.73;;
59970;SDS011;45825;45.434;9.116;2023-03-01T04:22:01;43.90;;;30.45;;
59970;SDS011;45825;45.434;9.116;2023-03-01T04:24:32;42.90;;;30.98;;
59970;SDS011;45825;45.434;9.116;2023-03-01T04:26:58;46.13;;;31.02;;
59970;SDS011;45825;45.434;9.116;2023-03-01T04:29:23;44.72;;;30.40;;
59970;SDS011;45825;45.434;9.116;2023-03-01T04:31:48;43.10;;;30.23;;
59970;SDS011;45825;45.434;9.116;2023-03-01T04:34:14;41.92;;;30.10;;
59970;SDS011;45825;45.434;9.116;2023-03-01T04:36:39;41.28;;;29.27;;
59970;SDS011;45825;45.434;9.116;2023-03-01T04:39:04;44.50;;;30.33;;
59970;SDS011;45825;45.434;9.116;2023-03-01T04:41:36;41.42;;;28.50;;
59970;SDS011;45825;45.434;9.116;2023-03-01T04:44:07;40.47;;;29.50;;
59970;SDS011;45825;45.434;9.116;2023-03-01T04:46:34;42.42;;;29.10;;
59970;SDS011;45825;45.434;9.116;2023-03-01T04:49:00;43.83;;;29.67;;
59970;SDS011;45825;45.434;9.116;2023-03-01T04:51:26;42.30;;;29.42;;
59970;SDS011;45825;45.434;9.116;2023-03-01T04:53:52;42.72;;;30.05;;
59970;SDS011;45825;45.434;9.116;2023-03-01T04:56:17;41.58;;;28.42;;
59970;SDS011;45825;45.434;9.116;2023-03-01T04:58:47;41.55;;;30.75;;
59970;SDS011;45825;45.434;9.116;2023-03-01T05:01:14;41.50;;;30.23;;
59970;SDS011;45825;45.434;9.116;2023-03-01T05:03:45;41.33;;;30.40;;
59970;SDS011;45825;45.434;9.116;2023-03-01T05:06:12;41.67;;;28.75;;
59970;SDS011;45825;45.434;9.116;2023-03-01T05:08:38;41.60;;;29.98;;
59970;SDS011;45825;45.434;9.116;2023-03-01T05:11:05;38.92;;;28.45;;
59970;SDS011;45825;45.434;9.116;2023-03-01T05:13:33;38.17;;;27.38;;
59970;SDS011;45825;45.434;9.116;2023-03-01T05:16:00;39.55;;;27.55;;
59970;SDS011;45825;45.434;9.116;2023-03-01T05:18:27;41.55;;;29.42;;
59970;SDS011;45825;45.434;9.116;2023-03-01T05:20:53;40.45;;;28.85;;
59970;SDS011;45825;45.434;9.116;2023-03-01T05:23:21;40.05;;;27.63;;
59970;SDS011;45825;45.434;9.116;2023-03-01T05:25:50;43.78;;;29.23;;
59970;SDS011;45825;45.434;9.116;2023-03-01T05:28:17;40.50;;;29.63;;
59970;SDS011;45825;45.434;9.116;2023-03-01T05:30:44;40.42;;;28.02;;
59970;SDS011;45825;45.434;9.116;2023-03-01T05:33:10;40.25;;;27.17;;
59970;SDS011;45825;45.434;9.116;2023-03-01T05:35:38;40.72;;;28.98;;
59970;SDS011;45825;45.434;9.116;2023-03-01T05:38:06;43.13;;;28.38;;
59970;SDS011;45825;45.434;9.116;2023-03-01T05:40:32;39.53;;;27.83;;
59970;SDS011;45825;45.434;9.116;2023-03-01T05:42:58;37.20;;;27.38;;
59970;SDS011;45825;45.434;9.116;2023-03-01T05:45:24;40.80;;;27.55;;
59970;SDS011;45825;45.434;9.116;2023-03-01T05:47:51;40.80;;;28.38;;
59970;SDS011;45825;45.434;9.116;2023-03-01T05:50:18;40.88;;;27.40;;
59970;SDS011;45825;45.434;9.116;2023-03-01T05:52:48;41.83;;;27.77;;
59970;SDS011;45825;45.434;9.116;2023-03-01T05:55:16;38.17;;;26.33;;
59970;SDS011;45825;45.434;9.116;2023-03-01T05:57:43;37.80;;;27.17;;
59970;SDS011;45825;45.434;9.116;2023-03-01T06:00:09;40.08;;;26.48;;
59970;SDS011;45825;45.434;9.116;2023-03-01T06:02:36;42.22;;;27.77;;
59970;SDS011;45825;45.434;9.116;2023-03-01T06:05:01;44.17;;;27.58;;
59970;SDS011;45825;45.434;9.116;2023-03-01T06:07:27;37.35;;;26.30;;
59970;SDS011;45825;45.434;9.116;2023-03-01T06:09:52;39.42;;;27.30;;
59970;SDS011;45825;45.434;9.116;2023-03-01T06:12:18;41.05;;;28.08;;
59970;SDS011;45825;45.434;9.116;2023-03-01T06:14:44;37.80;;;26.15;;
59970;SDS011;45825;45.434;9.116;2023-03-01T06:17:10;36.10;;;26.30;;
59970;SDS011;45825;45.434;9.116;2023-03-01T06:19:35;38.25;;;26.90;;
59970;SDS011;45825;45.434;9.116;2023-03-01T06:22:00;37.88;;;27.27;;
59970;SDS011;45825;45.434;9.116;2023-03-01T06:24:26;39.10;;;26.30;;
59970;SDS011;45825;45.434;9.116;2023-03-01T06:26:53;36.53;;;26.58;;
59970;SDS011;45825;45.434;9.116;2023-03-01T06:29:19;38.13;;;25.52;;
59970;SDS011;45825;45.434;9.116;2023-03-01T06:31:44;38.72;;;25.05;;
59970;SDS011;45825;45.434;9.116;2023-03-01T06:34:10;36.42;;;25.00;;
59970;SDS011;45825;45.434;9.116;2023-03-01T06:36:38;36.65;;;25.95;;
59970;SDS011;45825;45.434;9.116;2023-03-01T06:39:04;38.22;;;27.17;;
59970;SDS011;45825;45.434;9.116;2023-03-01T06:41:30;38.88;;;26.63;;
59970;SDS011;45825;45.434;9.116;2023-03-01T06:43:56;39.17;;;27.58;;
59970;SDS011;45825;45.434;9.116;2023-03-01T06:46:22;34.67;;;26.27;;
59970;SDS011;45825;45.434;9.116;2023-03-01T06:48:47;36.95;;;25.52;;
59970;SDS011;45825;45.434;9.116;2023-03-01T06:51:13;35.33;;;25.33;;
59970;SDS011;45825;45.434;9.116;2023-03-01T06:53:38;35.90;;;24.90;;
59970;SDS011;45825;45.434;9.116;2023-03-01T06:56:03;39.30;;;24.33;;
59970;SDS011;45825;45.434;9.116;2023-03-01T06:58:29;34.78;;;22.70;;
59970;SDS011;45825;45.434;9.116;2023-03-01T07:00:54;31.80;;;20.92;;
59970;SDS011;45825;45.434;9.116;2023-03-01T07:03:19;24.27;;;16.65;;
59970;SDS011;45825;45.434;9.116;2023-03-01T07:05:45;27.33;;;16.13;;
59970;SDS011;45825;45.434;9.116;2023-03-01T07:08:10;24.02;;;15.88;;
59970;SDS011;45825;45.434;9.116;2023-03-01T07:10:36;28.00;;;16.80;;
59970;SDS011;45825;45.434;9.116;2023-03-01T07:13:01;25.33;;;15.57;;
59970;SDS011;45825;45.434;9.116;2023-03-01T07:15:27;26.75;;;16.08;;
59970;SDS011;45825;45.434;9.116;2023-03-01T07:17:53;24.92;;;15.25;;
59970;SDS011;45825;45.434;9.116;2023-03-01T07:20:18;24.98;;;15.18;;
59970;SDS011;45825;45.434;9.116;2023-03-01T07:22:47;21.95;;;14.15;;
59970;SDS011;45825;45.434;9.116;2023-03-01T07:25:13;25.42;;;15.48;;
59970;SDS011;45825;45.434;9.116;2023-03-01T07:27:38;24.67;;;15.18;;
59970;SDS011;45825;45.434;9.116;2023-03-01T07:30:04;22.92;;;13.50;;
59970;SDS011;45825;45.434;9.116;2023-03-01T07:32:29;26.00;;;19.15;;
59970;SDS011;45825;45.434;9.116;2023-03-01T07:34:55;22.38;;;15.25;;
59970;SDS011;45825;45.434;9.116;2023-03-01T07:37:20;24.02;;;14.32;;
59970;SDS011;45825;45.434;9.116;2023-03-01T07:39:45;23.55;;;14.00;;
59970;SDS011;45825;45.434;9.116;2023-03-01T07:42:10;19.30;;;13.20;;
59970;SDS011;45825;45.434;9.116;2023-03-01T07:44:36;20.80;;;12.95;;
59970;SDS011;45825;45.434;9.116;2023-03-01T07:47:02;20.05;;;12.98;;
59970;SDS011;45825;45.434;9.116;2023-03-01T07:49:28;18.63;;;12.98;;
59970;SDS011;45825;45.434;9.116;2023-03-01T07:51:54;22.30;;;13.80;;
59970;SDS011;45825;45.434;9.116;2023-03-01T07:54:19;21.80;;;14.20;;
59970;SDS011;45825;45.434;9.116;2023-03-01T07:56:44;20.02;;;13.27;;
59970;SDS011;45825;45.434;9.116;2023-03-01T07:59:10;19.40;;;12.93;;
59970;SDS011;45825;45.434;9.116;2023-03-01T08:01:35;21.25;;;13.10;;
59970;SDS011;45825;45.434;9.116;2023-03-01T08:04:00;22.35;;;13.43;;
59970;SDS011;45825;45.434;9.116;2023-03-01T08:06:26;20.67;;;13.43;;
59970;SDS011;45825;45.434;9.116;2023-03-01T08:08:52;20.42;;;12.93;;
59970;SDS011;45825;45.434;9.116;2023-03-01T08:11:20;19.90;;;13.00;;
59970;SDS011;45825;45.434;9.116;2023-03-01T08:13:47;20.35;;;13.57;;
59970;SDS011;45825;45.434;9.116;2023-03-01T08:16:13;21.00;;;13.70;;
59970;SDS011;45825;45.434;9.116;2023-03-01T08:18:40;22.75;;;14.07;;
59970;SDS011;45825;45.434;9.116;2023-03-01T08:21:06;26.33;;;16.00;;
59970;SDS011;45825;45.434;9.116;2023-03-01T08:23:33;22.67;;;14.98;;
59970;SDS011;45825;45.434;9.116;2023-03-01T08:26:09;19.98;;;12.70;;
59970;SDS011;45825;45.434;9.116;2023-03-01T08:28:42;21.40;;;13.93;;
59970;SDS011;45825;45.434;9.116;2023-03-01T08:31:17;26.38;;;14.27;;
59970;SDS011;45825;45.434;9.116;2023-03-01T08:33:45;19.63;;;13.90;;
59970;SDS011;45825;45.434;9.116;2023-03-01T08:36:24;22.23;;;13.93;;
59970;SDS011;45825;45.434;9.116;2023-03-01T08:38:51;23.15;;;13.63;;
59970;SDS011;45825;45.434;9.116;2023-03-01T08:41:17;19.30;;;12.98;;
59970;SDS011;45825;45.434;9.116;2023-03-01T08:43:43;22.67;;;13.75;;
59970;SDS011;45825;45.434;9.116;2023-03-01T08:46:08;20.67;;;12.65;;
59970;SDS011;45825;45.434;9.116;2023-03-01T08:48:34;23.95;;;13.85;;
59970;SDS011;45825;45.434;9.116;2023-03-01T08:51:07;20.52;;;13.05;;
59970;SDS011;45825;45.434;9.116;2023-03-01T08:53:39;20.65;;;12.88;;
59970;SDS011;45825;45.434;9.116;2023-03-01T08:56:05;19.77;;;12.05;;
59970;SDS011;45825;45.434;9.116;2023-03-01T08:58:31;20.58;;;13.52;;
59970;SDS011;45825;45.434;9.116;2023-03-01T09:00:57;22.35;;;13.40;;
59970;SDS011;45825;45.434;9.116;2023-03-01T09:03:23;26.92;;;16.05;;
59970;SDS011;45825;45.434;9.116;2023-03-01T09:05:49;23.40;;;14.45;;
59970;SDS011;45825;45.434;9.116;2023-03-01T09:08:15;20.98;;;12.82;;
59970;SDS011;45825;45.434;9.116;2023-03-01T09:10:41;26.25;;;13.45;;
59970;SDS011;45825;45.434;9.116;2023-03-01T09:13:07;19.83;;;12.70;;
59970;SDS011;45825;45.434;9.116;2023-03-01T09:15:33;20.35;;;13.35;;
59970;SDS011;45825;45.434;9.116;2023-03-01T09:17:59;21.15;;;13.60;;
59970;SDS011;45825;45.434;9.116;2023-03-01T09:20:24;21.00;;;13.43;;
59970;SDS011;45825;45.434;9.116;2023-03-01T09:22:49;22.58;;;14.57;;
59970;SDS011;45825;45.434;9.116;2023-03-01T09:25:15;25.58;;;16.85;;
59970;SDS011;45825;45.434;9.116;2023-03-01T09:27:40;25.55;;;17.33;;
59970;SDS011;45825;45.434;9.116;2023-03-01T09:30:06;27.17;;;18.35;;
59970;SDS011;45825;45.434;9.116;2023-03-01T09:32:32;27.75;;;19.27;;
59970;SDS011;45825;45.434;9.116;2023-03-01T09:34:57;27.88;;;18.10;;
59970;SDS011;45825;45.434;9.116;2023-03-01T09:37:30;26.27;;;18.73;;
59970;SDS011;45825;45.434;9.116;2023-03-01T09:39:57;27.30;;;18.77;;
59970;SDS011;45825;45.434;9.116;2023-03-01T09:42:22;28.48;;;19.17;;
59970;SDS011;45825;45.434;9.116;2023-03-01T09:44:49;29.33;;;19.02;;
59970;SDS011;45825;45.434;9.116;2023-03-01T09:47:26;26.65;;;18.35;;
59970;SDS011;45825;45.434;9.116;2023-03-01T09:50:08;25.75;;;17.92;;
59970;SDS011;45825;45.434;9.116;2023-03-01T09:53:20;26.48;;;17.08;;
59970;SDS011;45825;45.434;9.116;2023-03-01T10:01:23;26.52;;;17.73;;
59970;SDS011;45825;45.434;9.116;2023-03-01T10:06:44;26.83;;;17.33;;
59970;SDS011;45825;45.434;9.116;2023-03-01T10:09:39;24.63;;;16.60;;
59970;SDS011;45825;45.434;9.116;2023-03-01T10:12:10;24.25;;;15.85;;
59970;SDS011;45825;45.434;9.116;2023-03-01T10:14:58;23.83;;;15.70;;
59970;SDS011;45825;45.434;9.116;2023-03-01T10:22:42;23.92;;;16.30;;
59970;SDS011;45825;45.434;9.116;2023-03-01T10:25:12;26.25;;;16.63;;
59970;SDS011;45825;45.434;9.116;2023-03-01T10:30:40;23.65;;;16.20;;
59970;SDS011;45825;45.434;9.116;2023-03-01T10:33:20;23.77;;;15.88;;
59970;SDS011;45825;45.434;9.116;2023-03-01T10:35:55;22.85;;;16.08;;
59970;SDS011;45825;45.434;9.116;2023-03-01T10:38:21;23.50;;;16.25;;
59970;SDS011;45825;45.434;9.116;2023-03-01T10:43:43;21.55;;;16.20;;
59970;SDS011;45825;45.434;9.116;2023-03-01T10:49:05;22.90;;;15.77;;
59970;SDS011;45825;45.434;9.116;2023-03-01T10:51:30;26.17;;;15.18;;
59970;SDS011;45825;45.434;9.116;2023-03-01T10:53:56;25.65;;;15.85;;
59970;SDS011;45825;45.434;9.116;2023-03-01T10:56:21;23.13;;;15.40;;
59970;SDS011;45825;45.434;9.116;2023-03-01T10:59:01;24.65;;;16.20;;
59970;SDS011;45825;45.434;9.116;2023-03-01T11:01:31;22.10;;;15.43;;
59970;SDS011;45825;45.434;9.116;2023-03-01T11:06:30;26.38;;;17.55;;
59970;SDS011;45825;45.434;9.116;2023-03-01T11:08:56;25.52;;;17.13;;
59970;SDS011;45825;45.434;9.116;2023-03-01T11:13:59;23.63;;;17.13;;
59970;SDS011;45825;45.434;9.116;2023-03-01T11:16:42;25.98;;;17.30;;
59970;SDS011;45825;45.434;9.116;2023-03-01T11:21:47;24.65;;;16.25;;
59970;SDS011;45825;45.434;9.116;2023-03-01T11:26:55;27.60;;;16.73;;
59970;SDS011;45825;45.434;9.116;2023-03-01T11:29:26;24.17;;;17.70;;
59970;SDS011;45825;45.434;9.116;2023-03-01T11:32:05;26.50;;;17.70;;
59970;SDS011;45825;45.434;9.116;2023-03-01T11:42:40;27.42;;;18.35;;
59970;SDS011;45825;45.434;9.116;2023-03-01T11:45:09;26.08;;;18.58;;
59970;SDS011;45825;45.434;9.116;2023-03-01T11:50:15;24.75;;;17.75;;
59970;SDS011;45825;45.434;9.116;2023-03-01T12:11:52;28.85;;;18.77;;
59970;SDS011;45825;45.434;9.116;2023-03-01T12:19:41;28.60;;;18.65;;
59970;SDS011;45825;45.434;9.116;2023-03-01T12:22:30;26.98;;;18.73;;
59970;SDS011;45825;45.434;9.116;2023-03-01T12:30:03;30.60;;;20.55;;
59970;SDS011;45825;45.434;9.116;2023-03-01T12:35:33;28.98;;;20.08;;
59970;SDS011;45825;45.434;9.116;2023-03-01T12:40:35;34.60;;;20.95;;
59970;SDS011;45825;45.434;9.116;2023-03-01T12:43:30;29.00;;;19.67;;
59970;SDS011;45825;45.434;9.116;2023-03-01T12:51:33;30.48;;;18.70;;
59970;SDS011;45825;45.434;9.116;2023-03-01T12:54:26;27.45;;;18.83;;
59970;SDS011;45825;45.434;9.116;2023-03-01T12:56:55;28.45;;;19.02;;
59970;SDS011;45825;45.434;9.116;2023-03-01T13:02:01;31.80;;;19.65;;
59970;SDS011;45825;45.434;9.116;2023-03-01T13:13:12;27.95;;;18.92;;
59970;SDS011;45825;45.434;9.116;2023-03-01T13:15:43;26.52;;;18.10;;
59970;SDS011;45825;45.434;9.116;2023-03-01T13:23:25;26.00;;;18.40;;
59970;SDS011;45825;45.434;9.116;2023-03-01T13:28:40;30.88;;;19.33;;
59970;SDS011;45825;45.434;9.116;2023-03-01T13:44:11;27.48;;;18.77;;
59970;SDS011;45825;45.434;9.116;2023-03-01T13:46:46;29.90;;;18.80;;
59970;SDS011;45825;45.434;9.116;2023-03-01T13:49:16;28.42;;;19.70;;
59970;SDS011;45825;45.434;9.116;2023-03-01T13:51:47;28.63;;;18.92;;
59970;SDS011;45825;45.434;9.116;2023-03-01T13:54:16;28.65;;;19.08;;
59970;SDS011;45825;45.434;9.116;2023-03-01T13:56:51;32.75;;;20.55;;
59970;SDS011;45825;45.434;9.116;2023-03-01T13:59:19;26.10;;;19.23;;
59970;SDS011;45825;45.434;9.116;2023-03-01T14:01:53;28.52;;;19.63;;
59970;SDS011;45825;45.434;9.116;2023-03-01T14:04:24;27.33;;;19.45;;
59970;SDS011;45825;45.434;9.116;2023-03-01T14:07:08;26.13;;;19.05;;
59970;SDS011;45825;45.434;9.116;2023-03-01T14:09:38;31.75;;;18.85;;
59970;SDS011;45825;45.434;9.116;2023-03-01T14:12:12;26.75;;;19.73;;
59970;SDS011;45825;45.434;9.116;2023-03-01T14:15:06;29.60;;;19.92;;
59970;SDS011;45825;45.434;9.116;2023-03-01T14:17:46;28.38;;;19.35;;
59970;SDS011;45825;45.434;9.116;2023-03-01T14:20:25;27.45;;;18.85;;
59970;SDS011;45825;45.434;9.116;2023-03-01T14:22:53;30.88;;;19.90;;
59970;SDS011;45825;45.434;9.116;2023-03-01T14:25:23;28.35;;;19.92;;
59970;SDS011;45825;45.434;9.116;2023-03-01T14:27:59;29.30;;;19.38;;
59970;SDS011;45825;45.434;9.116;2023-03-01T14:30:30;28.75;;;19.83;;
59970;SDS011;45825;45.434;9.116;2023-03-01T14:35:30;28.60;;;19.42;;
59970;SDS011;45825;45.434;9.116;2023-03-01T14:37:57;29.48;;;19.63;;
59970;SDS011;45825;45.434;9.116;2023-03-01T14:40:28;28.60;;;19.17;;
59970;SDS011;45825;45.434;9.116;2023-03-01T14:42:58;26.33;;;18.65;;
59970;SDS011;45825;45.434;9.116;2023-03-01T14:45:26;26.48;;;19.30;;
59970;SDS011;45825;45.434;9.116;2023-03-01T14:47:54;30.25;;;19.05;;
59970;SDS011;45825;45.434;9.116;2023-03-01T14:52:58;27.38;;;19.33;;
59970;SDS011;45825;45.434;9.116;2023-03-01T14:55:27;27.75;;;19.48;;
59970;SDS011;45825;45.434;9.116;2023-03-01T14:57:56;28.60;;;19.45;;
59970;SDS011;45825;45.434;9.116;2023-03-01T15:00:23;29.75;;;19.40;;
59970;SDS011;45825;45.434;9.116;2023-03-01T15:02:51;30.27;;;20.55;;
59970;SDS011;45825;45.434;9.116;2023-03-01T15:05:28;29.40;;;19.23;;
59970;SDS011;45825;45.434;9.116;2023-03-01T15:07:59;30.35;;;20.95;;
59970;SDS011;45825;45.434;9.116;2023-03-01T15:10:33;27.92;;;18.98;;
59970;SDS011;45825;45.434;9.116;2023-03-01T15:13:22;29.30;;;19.55;;
59970;SDS011;45825;45.434;9.116;2023-03-01T15:15:48;27.58;;;19.40;;
59970;SDS011;45825;45.434;9.116;2023-03-01T15:18:25;26.70;;;19.00;;
59970;SDS011;45825;45.434;9.116;2023-03-01T15:20:52;26.38;;;18.73;;
59970;SDS011;45825;45.434;9.116;2023-03-01T15:23:23;28.20;;;19.83;;
59970;SDS011;45825;45.434;9.116;2023-03-01T15:25:52;30.63;;;20.38;;
59970;SDS011;45825;45.434;9.116;2023-03-01T15:28:23;29.30;;;20.60;;
59970;SDS011;45825;45.434;9.116;2023-03-01T15:30:55;26.55;;;18.52;;
59970;SDS011;45825;45.434;9.116;2023-03-01T15:35:52;28.88;;;20.02;;
59970;SDS011;45825;45.434;9.116;2023-03-01T15:38:24;32.88;;;20.70;;
59970;SDS011;45825;45.434;9.116;2023-03-01T15:40:50;31.30;;;20.70;;
59970;SDS011;45825;45.434;9.116;2023-03-01T15:46:03;30.95;;;21.00;;
59970;SDS011;45825;45.434;9.116;2023-03-01T15:48:29;33.03;;;20.60;;
59970;SDS011;45825;45.434;9.116;2023-03-01T15:50:56;29.75;;;19.75;;
59970;SDS011;45825;45.434;9.116;2023-03-01T15:53:23;30.73;;;19.92;;
59970;SDS011;45825;45.434;9.116;2023-03-01T15:55:48;31.95;;;20.35;;
59970;SDS011;45825;45.434;9.116;2023-03-01T16:00:48;29.00;;;19.13;;
59970;SDS011;45825;45.434;9.116;2023-03-01T16:03:17;29.02;;;19.58;;
59970;SDS011;45825;45.434;9.116;2023-03-01T16:05:46;29.75;;;20.35;;
59970;SDS011;45825;45.434;9.116;2023-03-01T16:08:13;28.52;;;19.35;;
59970;SDS011;45825;45.434;9.116;2023-03-01T16:10:39;29.63;;;19.75;;
59970;SDS011;45825;45.434;9.116;2023-03-01T16:13:06;28.65;;;19.90;;
59970;SDS011;45825;45.434;9.116;2023-03-01T16:15:33;31.48;;;20.88;;
59970;SDS011;45825;45.434;9.116;2023-03-01T16:18:00;30.02;;;20.88;;
59970;SDS011;45825;45.434;9.116;2023-03-01T16:20:26;29.23;;;19.67;;
59970;SDS011;45825;45.434;9.116;2023-03-01T16:22:52;31.17;;;19.80;;
59970;SDS011;45825;45.434;9.116;2023-03-01T16:25:19;30.38;;;20.42;;
59970;SDS011;45825;45.434;9.116;2023-03-01T16:27:46;25.75;;;18.38;;
59970;SDS011;45825;45.434;9.116;2023-03-01T16:30:17;28.15;;;19.10;;
59970;SDS011;45825;45.434;9.116;2023-03-01T16:32:46;30.15;;;20.50;;
59970;SDS011;45825;45.434;9.116;2023-03-01T16:35:14;32.40;;;20.75;;
59970;SDS011;45825;45.434;9.116;2023-03-01T16:37:41;28.20;;;19.40;;
59970;SDS011;45825;45.434;9.116;2023-03-01T16:40:15;31.27;;;19.63;;
59970;SDS011;45825;45.434;9.116;2023-03-01T16:42:43;31.20;;;20.30;;
59970;SDS011;45825;45.434;9.116;2023-03-01T16:45:09;29.17;;;20.05;;
59970;SDS011;45825;45.434;9.116;2023-03-01T16:47:34;28.52;;;19.35;;